Time;durP1;ratioP1;P1;durP2;ratioP2;P2;SDS_P1;SDS_P2;PMS_P1;PMS_P2;Temp;Humidity;BMP_temperature;BMP_pressure;BME280_temperature;BME280_humidity;BME280_pressure;Samples;Min_cycle;Max_cycle;Signal;HPM_P1;HPM_P2
2022/08/25 00:02:01;;;;;;;25.35;9.88;;;;;;;;;;10328898;28;20158;-74
2022/08/25 00:07:02;;;;;;;25.50;8.98;;;;;;;;;;10329615;28;20026;-77
2022/08/25 00:12:03;;;;;;;23.83;9.38;;;;;;;;;;10345748;28;21123;-73
2022/08/25 00:17:06;;;;;;;22.83;8.60;;;;;;;;;;10329440;28;20026;-77
2022/08/25 00:22:06;;;;;;;21.88;9.05;;;;;;;;;;10329513;28;20026;-76
2022/08/25 00:27:11;;;;;;;27.10;9.05;;;;;;;;;;10329062;28;20485;-75
2022/08/25 00:32:12;;;;;;;33.75;9.85;;;;;;;;;;10344311;28;20018;-81
2022/08/25 00:37:12;;;;;;;23.98;8.38;;;;;;;;;;10328511;28;20042;-75
2022/08/25 00:42:12;;;;;;;24.30;9.15;;;;;;;;;;10328136;28;20495;-74
2022/08/25 00:47:12;;;;;;;23.87;10.37;;;;;;;;;;10344445;28;20022;-73
2022/08/25 00:52:24;;;;;;;23.23;9.67;;;;;;;;;;10327793;28;20049;-73
2022/08/25 00:57:45;;;;;;;27.05;9.20;;;;;;;;;;10327546;28;20018;-78
2022/08/25 01:02:45;;;;;;;16.65;8.32;;;;;;;;;;10327399;28;20479;-73
2022/08/25 01:07:46;;;;;;;22.87;9.53;;;;;;;;;;10325808;28;20091;-73
2022/08/25 01:12:47;;;;;;;24.73;9.00;;;;;;;;;;10326756;28;20660;-76
2022/08/25 01:17:52;;;;;;;22.05;8.88;;;;;;;;;;10328322;28;20026;-73
2022/08/25 01:22:53;;;;;;;31.25;8.43;;;;;;;;;;10327583;28;20026;-74
2022/08/25 01:27:54;;;;;;;22.05;8.45;;;;;;;;;;10326897;28;20030;-80
2022/08/25 01:32:54;;;;;;;17.45;8.75;;;;;;;;;;10342627;28;20484;-73
2022/08/25 01:37:55;;;;;;;23.40;8.48;;;;;;;;;;10326303;28;20212;-73
2022/08/25 01:43:10;;;;;;;18.27;8.20;;;;;;;;;;10326908;28;20420;-73
2022/08/25 01:48:13;;;;;;;23.27;8.27;;;;;;;;;;10341441;28;20113;-80
2022/08/25 01:53:18;;;;;;;17.70;8.75;;;;;;;;;;10323960;28;20022;-72
2022/08/25 01:58:20;;;;;;;25.80;9.50;;;;;;;;;;10325098;28;20015;-79
2022/08/25 02:03:20;;;;;;;25.55;9.00;;;;;;;;;;10324366;28;20374;-74
2022/08/25 02:08:22;;;;;;;21.08;8.57;;;;;;;;;;10326630;28;20038;-73
2022/08/25 02:13:22;;;;;;;21.42;8.50;;;;;;;;;;10324821;28;20053;-74
2022/08/25 02:18:22;;;;;;;23.53;9.40;;;;;;;;;;10341806;28;20118;-77
2022/08/25 02:23:23;;;;;;;25.10;9.80;;;;;;;;;;10325159;28;20308;-78
2022/08/25 02:28:24;;;;;;;35.55;12.52;;;;;;;;;;10324574;28;20026;-72
2022/08/25 02:33:24;;;;;;;25.92;10.57;;;;;;;;;;10324735;28;20026;-76
2022/08/25 02:38:26;;;;;;;27.43;10.10;;;;;;;;;;10340601;28;20050;-76
2022/08/25 02:43:27;;;;;;;26.17;10.48;;;;;;;;;;10325538;28;20027;-76
2022/08/25 02:48:27;;;;;;;15.57;9.43;;;;;;;;;;10324623;28;20026;-75
2022/08/25 02:53:28;;;;;;;26.13;9.13;;;;;;;;;;10340673;28;20041;-72
2022/08/25 02:58:28;;;;;;;29.23;9.02;;;;;;;;;;10332666;28;20058;-75
2022/08/25 03:03:28;;;;;;;25.15;8.98;;;;;;;;;;10348628;28;20407;-74
2022/08/25 03:08:29;;;;;;;28.57;10.30;;;;;;;;;;10341668;28;20053;-75
2022/08/25 03:13:29;;;;;;;29.70;10.38;;;;;;;;;;10331698;28;20530;-73
2022/08/25 03:18:30;;;;;;;23.98;8.55;;;;;;;;;;10331390;28;20018;-76
2022/08/25 03:23:30;;;;;;;25.15;9.18;;;;;;;;;;10331466;28;20437;-77
2022/08/25 03:28:31;;;;;;;28.92;9.00;;;;;;;;;;10347654;28;20506;-74
2022/08/25 03:33:32;;;;;;;24.33;9.82;;;;;;;;;;10347115;28;20018;-78
2022/08/25 03:38:32;;;;;;;27.42;9.73;;;;;;;;;;10330676;28;20122;-79
2022/08/25 03:43:32;;;;;;;25.33;10.53;;;;;;;;;;10347052;28;20452;-73
2022/08/25 03:48:32;;;;;;;27.10;10.25;;;;;;;;;;10330677;28;20057;-76
2022/08/25 03:53:33;;;;;;;27.88;10.07;;;;;;;;;;10330009;28;20018;-74
2022/08/25 03:58:33;;;;;;;25.02;11.10;;;;;;;;;;10346353;28;20025;-73
2022/08/25 04:03:33;;;;;;;22.50;8.57;;;;;;;;;;10346111;28;20064;-73
2022/08/25 04:08:34;;;;;;;22.27;9.55;;;;;;;;;;10345003;28;20029;-81
2022/08/25 04:13:35;;;;;;;28.67;11.95;;;;;;;;;;10345671;28;20107;-70
2022/08/25 04:18:35;;;;;;;27.30;10.40;;;;;;;;;;10328841;28;20543;-78
2022/08/25 04:23:37;;;;;;;24.23;8.82;;;;;;;;;;10329465;28;20054;-76
2022/08/25 04:28:37;;;;;;;29.80;9.00;;;;;;;;;;10345025;28;20022;-73
2022/08/25 04:33:38;;;;;;;30.00;8.47;;;;;;;;;;10329737;28;20033;-76
2022/08/25 04:38:39;;;;;;;26.67;9.32;;;;;;;;;;10329551;28;20159;-80
2022/08/25 04:43:40;;;;;;;27.02;8.40;;;;;;;;;;10328047;28;20022;-75
2022/08/25 04:48:41;;;;;;;23.95;9.40;;;;;;;;;;10327436;28;20030;-78
2022/08/25 04:53:42;;;;;;;23.95;10.30;;;;;;;;;;10327450;28;20023;-74
2022/08/25 04:58:42;;;;;;;24.05;8.57;;;;;;;;;;10327523;28;20049;-74
2022/08/25 05:03:44;;;;;;;27.23;9.03;;;;;;;;;;10328827;28;20034;-79
2022/08/25 05:08:44;;;;;;;26.52;9.52;;;;;;;;;;10326887;28;20034;-73
2022/08/25 05:13:45;;;;;;;25.30;8.02;;;;;;;;;;10327026;28;20027;-76
2022/08/25 05:18:46;;;;;;;32.22;8.07;;;;;;;;;;10342719;28;20635;-74
2022/08/25 05:23:47;;;;;;;18.52;7.93;;;;;;;;;;10327261;28;20036;-74
2022/08/25 05:28:49;;;;;;;22.00;8.07;;;;;;;;;;10326436;28;20030;-76
2022/08/25 05:33:50;;;;;;;36.20;10.32;;;;;;;;;;10342297;28;20131;-73
2022/08/25 05:38:50;;;;;;;25.02;8.90;;;;;;;;;;10325448;28;20042;-80
2022/08/25 05:43:50;;;;;;;24.25;9.13;;;;;;;;;;10326001;28;20030;-76
2022/08/25 05:48:51;;;;;;;26.92;8.68;;;;;;;;;;10325437;28;20030;-74
2022/08/25 05:53:51;;;;;;;18.93;9.57;;;;;;;;;;10326152;28;20105;-75
2022/08/25 05:58:52;;;;;;;20.95;8.00;;;;;;;;;;10325200;28;20527;-73
2022/08/25 06:03:53;;;;;;;29.55;7.90;;;;;;;;;;10324971;28;20507;-74
2022/08/25 06:08:53;;;;;;;18.43;7.40;;;;;;;;;;10324523;28;20424;-77
2022/08/25 06:13:53;;;;;;;31.42;8.63;;;;;;;;;;10341249;28;20505;-76
2022/08/25 06:18:54;;;;;;;29.77;8.88;;;;;;;;;;10324566;28;20018;-74
2022/08/25 06:23:54;;;;;;;25.63;7.00;;;;;;;;;;10324319;28;20105;-74
2022/08/25 06:28:54;;;;;;;27.60;6.67;;;;;;;;;;10340162;28;20026;-73
2022/08/25 06:33:55;;;;;;;18.17;6.88;;;;;;;;;;10347713;28;20277;-74
2022/08/25 06:38:55;;;;;;;20.47;6.37;;;;;;;;;;10333911;28;20074;-74
2022/08/25 06:43:56;;;;;;;29.88;6.13;;;;;;;;;;10333920;28;20027;-73
2022/08/25 06:48:56;;;;;;;20.67;6.75;;;;;;;;;;10332329;28;20030;-73
2022/08/25 06:53:57;;;;;;;16.52;5.38;;;;;;;;;;10348223;28;20022;-74
2022/08/25 06:58:57;;;;;;;21.38;5.70;;;;;;;;;;10347877;28;20022;-75
2022/08/25 07:04:00;;;;;;;21.17;5.43;;;;;;;;;;10332354;28;20037;-77
2022/08/25 07:09:01;;;;;;;24.92;5.93;;;;;;;;;;10331973;28;20149;-74
2022/08/25 07:14:03;;;;;;;25.50;5.78;;;;;;;;;;10330974;28;20018;-74
2022/08/25 07:19:03;;;;;;;20.95;6.40;;;;;;;;;;10331095;28;20057;-77
2022/08/25 07:24:05;;;;;;;24.83;5.45;;;;;;;;;;10331007;28;20560;-73
2022/08/25 07:29:08;;;;;;;23.60;6.15;;;;;;;;;;10331345;28;20101;-73
2022/08/25 07:39:27;;;;;;;25.65;5.80;;;;;;;;;;10331616;28;20058;-74
2022/08/25 07:44:27;;;;;;;15.35;4.25;;;;;;;;;;10329714;28;20473;-79
2022/08/25 07:49:27;;;;;;;26.08;7.40;;;;;;;;;;10346379;28;20025;-73
2022/08/25 07:54:30;;;;;;;22.17;5.47;;;;;;;;;;10329700;28;20440;-77
2022/08/25 07:59:30;;;;;;;28.77;6.97;;;;;;;;;;10330464;28;20018;-77
2022/08/25 08:04:31;;;;;;;34.90;5.60;;;;;;;;;;10329069;28;20022;-76
2022/08/25 08:09:31;;;;;;;21.05;4.60;;;;;;;;;;10330346;28;20384;-77
2022/08/25 08:14:31;;;;;;;14.37;4.57;;;;;;;;;;10328476;28;20028;-76
2022/08/25 08:19:31;;;;;;;25.83;6.07;;;;;;;;;;10344843;28;20094;-74
2022/08/25 08:24:37;;;;;;;26.35;4.30;;;;;;;;;;10344870;28;20022;-78
2022/08/25 08:29:38;;;;;;;28.17;4.50;;;;;;;;;;10328620;28;20029;-75
2022/08/25 08:34:42;;;;;;;23.17;4.07;;;;;;;;;;10328140;28;20026;-72
2022/08/25 08:39:42;;;;;;;40.00;5.85;;;;;;;;;;10327676;28;20042;-77
2022/08/25 08:44:42;;;;;;;32.58;5.82;;;;;;;;;;10327817;28;20022;-74
2022/08/25 08:50:01;;;;;;;27.30;3.87;;;;;;;;;;10343970;28;20089;-76
2022/08/25 08:55:04;;;;;;;23.58;3.53;;;;;;;;;;10342811;28;20026;-73
2022/08/25 09:00:05;;;;;;;27.00;4.63;;;;;;;;;;10326898;28;20019;-76
2022/08/25 09:05:10;;;;;;;24.23;4.32;;;;;;;;;;10328848;28;20097;-72
2022/08/25 09:10:10;;;;;;;24.02;3.83;;;;;;;;;;10327949;28;20033;-73
2022/08/25 09:15:17;;;;;;;32.40;6.50;;;;;;;;;;10342988;28;20031;-73
2022/08/25 09:20:43;;;;;;;27.08;3.92;;;;;;;;;;10342382;28;20022;-74
2022/08/25 09:26:03;;;;;;;20.20;3.47;;;;;;;;;;10327074;28;20069;-73
2022/08/25 09:31:12;;;;;;;28.75;6.03;;;;;;;;;;10315445;28;20045;-75
2022/08/25 09:36:12;;;;;;;35.65;3.80;;;;;;;;;;10325365;28;20054;-72
2022/08/25 09:41:15;;;;;;;17.25;3.50;;;;;;;;;;10325105;28;20030;-74
2022/08/25 09:46:16;;;;;;;23.33;3.50;;;;;;;;;;10326183;28;20026;-73
2022/08/25 09:51:16;;;;;;;16.70;3.53;;;;;;;;;;10326429;28;20124;-73
2022/08/25 09:56:18;;;;;;;29.98;3.60;;;;;;;;;;10326561;28;20010;-73
2022/08/25 10:01:20;;;;;;;35.53;4.15;;;;;;;;;;10324834;28;20096;-73
2022/08/25 10:06:20;;;;;;;32.22;4.40;;;;;;;;;;10323679;28;20514;-72
2022/08/25 10:11:30;;;;;;;23.10;2.90;;;;;;;;;;10324438;28;20092;-73
2022/08/25 10:16:31;;;;;;;33.03;3.83;;;;;;;;;;10340648;28;20556;-76
2022/08/25 10:21:32;;;;;;;24.85;3.20;;;;;;;;;;10324901;28;20555;-73
2022/08/25 10:26:42;;;;;;;25.70;3.85;;;;;;;;;;10324610;28;20030;-74
2022/08/25 10:31:55;;;;;;;33.90;3.67;;;;;;;;;;10325233;28;20483;-73
2022/08/25 10:36:56;;;;;;;25.45;3.72;;;;;;;;;;10340475;28;20592;-77
2022/08/25 10:42:21;;;;;;;21.23;2.25;;;;;;;;;;10341259;28;20030;-73
2022/08/25 10:47:40;;;;;;;24.35;2.53;;;;;;;;;;10324083;28;20041;-74
2022/08/25 10:53:00;;;;;;;28.88;2.80;;;;;;;;;;10340297;28;20047;-73
2022/08/25 10:58:07;;;;;;;22.33;2.30;;;;;;;;;;10313307;28;20026;-74
2022/08/25 11:03:25;;;;;;;18.30;2.50;;;;;;;;;;10340346;28;20081;-74
2022/08/25 11:08:43;;;;;;;16.08;2.28;;;;;;;;;;10323684;28;20055;-73
2022/08/25 11:13:49;;;;;;;24.63;2.45;;;;;;;;;;10324477;28;20109;-74
2022/08/25 11:18:56;;;;;;;22.17;2.88;;;;;;;;;;10344640;28;20057;-73
2022/08/25 11:24:09;;;;;;;18.42;3.42;;;;;;;;;;10347425;28;20026;-73
2022/08/25 11:29:17;;;;;;;24.08;3.15;;;;;;;;;;10330243;28;20084;-73
2022/08/25 11:34:17;;;;;;;17.30;3.10;;;;;;;;;;10331817;28;20030;-73
2022/08/25 11:39:21;;;;;;;27.58;4.10;;;;;;;;;;10346162;28;20046;-73
2022/08/25 11:44:21;;;;;;;21.73;3.85;;;;;;;;;;10346730;28;20022;-73
2022/08/25 11:49:30;;;;;;;20.25;3.28;;;;;;;;;;10346659;28;20582;-74
2022/08/25 11:54:34;;;;;;;25.88;3.97;;;;;;;;;;10345981;28;20105;-74
2022/08/25 11:59:52;;;;;;;27.42;3.60;;;;;;;;;;10345716;28;20447;-74
2022/08/25 12:04:54;;;;;;;19.98;4.10;;;;;;;;;;10346380;28;20445;-73
2022/08/25 12:09:54;;;;;;;21.83;3.22;;;;;;;;;;10345655;28;20484;-73
2022/08/25 12:14:54;;;;;;;22.13;3.40;;;;;;;;;;10345472;28;20030;-74
2022/08/25 12:19:56;;;;;;;21.30;3.58;;;;;;;;;;10345821;28;20018;-74
2022/08/25 12:25:10;;;;;;;21.08;3.38;;;;;;;;;;10330370;28;20034;-76
2022/08/25 12:30:13;;;;;;;11.13;2.80;;;;;;;;;;10329268;28;20021;-74
2022/08/25 12:35:22;;;;;;;15.45;2.80;;;;;;;;;;10344775;28;20026;-73
2022/08/25 12:40:30;;;;;;;14.98;2.78;;;;;;;;;;10329704;28;20508;-74
2022/08/25 12:45:41;;;;;;;25.13;3.40;;;;;;;;;;10329781;28;20026;-79
2022/08/25 12:50:44;;;;;;;17.83;2.70;;;;;;;;;;10328967;28;20033;-73
2022/08/25 12:55:48;;;;;;;11.43;3.00;;;;;;;;;;10328014;28;20381;-74
2022/08/25 13:01:00;;;;;;;15.27;2.60;;;;;;;;;;10329025;28;20499;-76
2022/08/25 13:06:12;;;;;;;27.42;2.85;;;;;;;;;;10328672;28;20890;-74
2022/08/25 13:11:33;;;;;;;26.52;4.32;;;;;;;;;;10327000;28;20026;-73
2022/08/25 13:16:34;;;;;;;17.33;2.72;;;;;;;;;;10327769;28;20014;-76
2022/08/25 13:21:36;;;;;;;17.23;2.73;;;;;;;;;;10343125;28;20407;-73
2022/08/25 13:26:38;;;;;;;19.17;3.08;;;;;;;;;;10326353;28;20543;-73
2022/08/25 13:31:49;;;;;;;15.70;2.97;;;;;;;;;;10326085;28;20417;-74
2022/08/25 13:42:14;;;;;;;14.77;4.85;;;;;;;;;;10327030;28;20505;-74
2022/08/25 13:47:16;;;;;;;25.95;3.05;;;;;;;;;;10326164;28;20014;-77
2022/08/25 13:52:22;;;;;;;16.30;3.53;;;;;;;;;;10325282;28;20026;-75
2022/08/25 13:57:24;;;;;;;22.25;3.13;;;;;;;;;;10325808;28;20104;-74
2022/08/25 14:02:40;;;;;;;20.73;3.08;;;;;;;;;;10325170;28;20026;-74
2022/08/25 14:07:51;;;;;;;45.22;7.13;;;;;;;;;;10325974;28;20014;-73
2022/08/25 14:13:05;;;;;;;18.92;3.00;;;;;;;;;;10326109;28;20519;-73
2022/08/25 14:18:14;;;;;;;23.90;3.90;;;;;;;;;;10325010;28;20019;-74
2022/08/25 14:23:16;;;;;;;15.68;4.22;;;;;;;;;;10326023;28;20385;-75
2022/08/25 14:28:18;;;;;;;13.07;3.05;;;;;;;;;;10325221;28;20092;-77
2022/08/25 14:33:23;;;;;;;18.08;3.72;;;;;;;;;;10327079;28;20404;-74
2022/08/25 14:38:23;;;;;;;15.73;3.10;;;;;;;;;;10323806;28;20046;-75
2022/08/25 14:43:24;;;;;;;28.10;3.80;;;;;;;;;;10323482;28;20034;-74
2022/08/25 14:48:26;;;;;;;19.38;3.08;;;;;;;;;;10323827;28;20523;-74
2022/08/25 14:53:27;;;;;;;26.42;4.28;;;;;;;;;;10329243;28;20157;-74
2022/08/25 14:58:27;;;;;;;16.00;3.70;;;;;;;;;;10347862;28;20052;-73
2022/08/25 15:03:30;;;;;;;25.50;4.85;;;;;;;;;;10348751;28;20026;-76
2022/08/25 15:13:49;;;;;;;23.88;4.28;;;;;;;;;;10332093;28;20030;-74
2022/08/25 15:18:50;;;;;;;14.48;4.10;;;;;;;;;;10331000;28;20417;-74
2022/08/25 15:23:50;;;;;;;22.23;3.30;;;;;;;;;;10331181;28;20040;-74
2022/08/25 15:28:50;;;;;;;33.72;4.53;;;;;;;;;;10330500;28;20053;-74
2022/08/25 15:33:50;;;;;;;28.50;5.20;;;;;;;;;;10347009;28;20488;-73
2022/08/25 15:38:51;;;;;;;28.10;4.07;;;;;;;;;;10330122;28;20061;-73
2022/08/25 15:43:52;;;;;;;13.52;3.40;;;;;;;;;;10329903;28;20120;-73
2022/08/25 15:48:52;;;;;;;24.83;4.15;;;;;;;;;;10345952;28;20026;-74
2022/08/25 15:53:52;;;;;;;15.38;3.40;;;;;;;;;;10345925;28;20029;-72
2022/08/25 15:58:53;;;;;;;10.03;3.63;;;;;;;;;;10330658;28;20022;-77
2022/08/25 16:03:53;;;;;;;30.43;3.70;;;;;;;;;;10343936;28;20850;-75
2022/08/25 16:08:53;;;;;;;26.53;3.90;;;;;;;;;;10329211;28;20053;-77
2022/08/25 16:13:54;;;;;;;19.35;4.47;;;;;;;;;;10330112;28;20321;-73
2022/08/25 16:18:55;;;;;;;17.48;3.72;;;;;;;;;;10344856;28;20025;-73
2022/08/25 16:23:59;;;;;;;20.00;4.47;;;;;;;;;;10329544;28;20057;-77
2022/08/25 16:28:59;;;;;;;33.10;4.75;;;;;;;;;;10328694;28;20544;-80
2022/08/25 16:34:00;;;;;;;28.55;4.93;;;;;;;;;;10329380;28;20022;-77
2022/08/25 16:39:00;;;;;;;31.13;6.45;;;;;;;;;;10328551;28;20070;-77
2022/08/25 16:44:02;;;;;;;26.37;5.87;;;;;;;;;;10344220;28;20056;-75
2022/08/25 16:49:03;;;;;;;32.97;6.68;;;;;;;;;;10327446;28;20030;-76
2022/08/25 16:59:24;;;;;;;27.75;5.30;;;;;;;;;;10329505;28;20018;-74
2022/08/25 17:04:24;;;;;;;25.33;5.35;;;;;;;;;;10327098;28;20475;-74
2022/08/25 17:09:25;;;;;;;15.38;6.43;;;;;;;;;;10327198;28;20049;-76
2022/08/25 17:14:25;;;;;;;22.10;5.63;;;;;;;;;;10326905;28;20398;-77
2022/08/25 17:19:26;;;;;;;34.75;6.20;;;;;;;;;;10326717;28;20089;-73
2022/08/25 17:24:27;;;;;;;16.65;5.57;;;;;;;;;;10326667;28;20026;-73
2022/08/25 17:29:27;;;;;;;25.77;5.30;;;;;;;;;;10342806;28;20436;-74
2022/08/25 17:34:27;;;;;;;28.00;6.37;;;;;;;;;;10325978;28;20041;-73
2022/08/25 17:39:28;;;;;;;30.38;5.53;;;;;;;;;;10342074;28;20306;-73
2022/08/25 17:44:28;;;;;;;20.77;6.00;;;;;;;;;;10342868;28;20038;-77
2022/08/25 17:49:28;;;;;;;14.18;4.95;;;;;;;;;;10326047;28;20029;-80
2022/08/25 17:54:28;;;;;;;25.73;5.25;;;;;;;;;;10341412;28;20057;-76
2022/08/25 17:59:29;;;;;;;23.65;5.00;;;;;;;;;;10341747;28;20084;-76
2022/08/25 18:04:30;;;;;;;31.38;6.60;;;;;;;;;;10341481;28;20504;-80
2022/08/25 18:09:31;;;;;;;26.48;5.85;;;;;;;;;;10326145;28;20153;-77
2022/08/25 18:14:31;;;;;;;26.40;5.60;;;;;;;;;;10324876;28;20033;-74
2022/08/25 18:19:31;;;;;;;25.23;5.70;;;;;;;;;;10341462;28;20273;-73
2022/08/25 18:24:34;;;;;;;22.08;7.50;;;;;;;;;;10324618;28;20041;-72
2022/08/25 18:29:34;;;;;;;22.15;7.03;;;;;;;;;;10325242;28;20481;-74
2022/08/25 18:34:35;;;;;;;19.30;6.00;;;;;;;;;;10340769;28;20037;-81
2022/08/25 18:44:54;;;;;;;21.95;6.78;;;;;;;;;;10325414;28;20038;-77
2022/08/25 18:49:54;;;;;;;17.35;5.47;;;;;;;;;;10325436;28;20034;-74
2022/08/25 18:54:54;;;;;;;22.00;6.55;;;;;;;;;;10340571;28;20451;-73
2022/08/25 18:59:55;;;;;;;24.70;6.32;;;;;;;;;;10323933;28;20495;-73
2022/08/25 19:04:55;;;;;;;14.93;5.63;;;;;;;;;;10325632;28;20559;-75
2022/08/25 19:09:55;;;;;;;17.92;4.70;;;;;;;;;;10325196;28;20022;-73
2022/08/25 19:14:55;;;;;;;24.02;5.82;;;;;;;;;;10323606;28;20030;-72
2022/08/25 19:19:55;;;;;;;19.77;4.78;;;;;;;;;;10339818;28;20019;-74
2022/08/25 19:24:56;;;;;;;28.55;5.43;;;;;;;;;;10340041;28;20027;-74
2022/08/25 19:29:56;;;;;;;19.33;4.63;;;;;;;;;;10323692;28;20026;-78
2022/08/25 19:34:57;;;;;;;15.70;5.18;;;;;;;;;;10323063;28;20022;-78
2022/08/25 19:39:57;;;;;;;16.73;5.20;;;;;;;;;;10344297;28;20050;-73
2022/08/25 19:44:57;;;;;;;32.95;4.82;;;;;;;;;;10331812;28;20372;-76
2022/08/25 19:49:58;;;;;;;25.08;5.47;;;;;;;;;;10346464;28;20349;-74
2022/08/25 19:55:01;;;;;;;20.38;5.68;;;;;;;;;;10330250;28;20038;-75
2022/08/25 20:00:04;;;;;;;23.30;5.53;;;;;;;;;;10330332;28;20026;-76
2022/08/25 20:05:04;;;;;;;27.58;4.82;;;;;;;;;;10329596;28;20026;-74
2022/08/25 20:10:06;;;;;;;18.60;4.80;;;;;;;;;;10346362;28;20083;-74
2022/08/25 20:15:08;;;;;;;24.15;5.72;;;;;;;;;;10330532;28;20073;-74
2022/08/25 20:20:10;;;;;;;19.17;4.60;;;;;;;;;;10329259;28;20018;-74
2022/08/25 20:25:12;;;;;;;15.18;4.47;;;;;;;;;;10345528;28;20022;-72
2022/08/25 20:30:17;;;;;;;16.20;5.30;;;;;;;;;;10329022;28;20037;-72
2022/08/25 20:35:18;;;;;;;25.23;4.97;;;;;;;;;;10329980;28;20022;-73
2022/08/25 20:40:20;;;;;;;30.38;5.05;;;;;;;;;;10328280;28;20630;-73
2022/08/25 20:45:23;;;;;;;17.35;4.82;;;;;;;;;;10330325;28;20041;-78
2022/08/25 20:50:24;;;;;;;18.40;4.75;;;;;;;;;;10327248;28;20070;-73
2022/08/25 20:55:24;;;;;;;20.30;4.93;;;;;;;;;;10327567;28;20026;-72
2022/08/25 21:00:24;;;;;;;29.80;6.70;;;;;;;;;;10344129;28;20030;-78
2022/08/25 21:05:25;;;;;;;27.20;4.77;;;;;;;;;;10327989;28;20117;-78
2022/08/25 21:10:25;;;;;;;19.97;4.17;;;;;;;;;;10327741;28;20117;-76
2022/08/25 21:15:25;;;;;;;20.42;4.95;;;;;;;;;;10327006;28;20029;-76
2022/08/25 21:20:26;;;;;;;18.42;5.00;;;;;;;;;;10326697;28;20033;-76
2022/08/25 21:25:26;;;;;;;20.13;4.47;;;;;;;;;;10328168;28;20117;-77
2022/08/25 21:30:27;;;;;;;36.40;6.05;;;;;;;;;;10342578;28;20022;-76
2022/08/25 21:35:27;;;;;;;22.70;5.60;;;;;;;;;;10326764;28;20035;-78
2022/08/25 21:40:27;;;;;;;21.90;4.93;;;;;;;;;;10342608;28;20054;-74
2022/08/25 21:45:28;;;;;;;21.85;5.03;;;;;;;;;;10326015;28;20121;-73
2022/08/25 21:50:28;;;;;;;26.00;4.20;;;;;;;;;;10325562;28;20018;-74
2022/08/25 21:55:28;;;;;;;17.80;4.50;;;;;;;;;;10325809;28;20023;-74
2022/08/25 22:00:28;;;;;;;20.15;4.05;;;;;;;;;;10341783;28;20029;-76
2022/08/25 22:05:29;;;;;;;20.73;4.03;;;;;;;;;;10325510;28;20416;-77
2022/08/25 22:10:29;;;;;;;29.08;5.15;;;;;;;;;;10341760;28;20429;-74
2022/08/25 22:15:29;;;;;;;27.83;4.65;;;;;;;;;;10325050;28;20117;-77
2022/08/25 22:20:29;;;;;;;28.83;4.25;;;;;;;;;;10341081;28;20018;-76
2022/08/25 22:25:30;;;;;;;14.50;3.78;;;;;;;;;;10341227;28;20038;-74
2022/08/25 22:30:30;;;;;;;22.10;3.97;;;;;;;;;;10341628;28;20026;-72
2022/08/25 22:35:31;;;;;;;22.33;4.22;;;;;;;;;;10324287;28;20480;-75
2022/08/25 22:40:32;;;;;;;30.02;5.13;;;;;;;;;;10324505;28;20034;-74
2022/08/25 22:45:34;;;;;;;23.15;4.25;;;;;;;;;;10340673;28;20023;-75
2022/08/25 22:50:35;;;;;;;14.65;4.22;;;;;;;;;;10324032;28;20405;-75
2022/08/25 22:55:40;;;;;;;11.32;4.22;;;;;;;;;;10326110;28;20077;-78
2022/08/25 23:00:40;;;;;;;14.63;4.82;;;;;;;;;;10324387;28;20029;-75
2022/08/25 23:05:40;;;;;;;25.35;4.20;;;;;;;;;;10340883;28;20052;-77
2022/08/25 23:10:46;;;;;;;18.65;3.88;;;;;;;;;;10325506;28;20030;-71
2022/08/25 23:15:46;;;;;;;17.35;4.82;;;;;;;;;;10329797;28;20105;-76
2022/08/25 23:26:05;;;;;;;17.98;3.80;;;;;;;;;;10332802;28;20105;-74
2022/08/25 23:31:06;;;;;;;13.80;4.03;;;;;;;;;;10331286;28;20109;-73
2022/08/25 23:36:09;;;;;;;25.83;4.30;;;;;;;;;;10330516;28;20523;-74
2022/08/25 23:41:10;;;;;;;17.27;4.55;;;;;;;;;;10331409;28;20027;-76
2022/08/25 23:46:11;;;;;;;16.80;4.95;;;;;;;;;;10347029;28;20531;-74
2022/08/25 23:51:11;;;;;;;27.50;4.77;;;;;;;;;;10346862;28;20030;-76
2022/08/25 23:56:11;;;;;;;21.90;4.20;;;;;;;;;;10330250;28;20461;-73
